Fairford, United Kingdom
Current Conditions -  °F | °C
As of 5:58 PM on Thursday 30 Oct 2014 (Local Time) from EGVA Reporting Station
Overcast Overcast  
Wind Chill: 60°   Ceiling: 1200
Heat Index: 60°   Visibility: 6mi
Dew Point: 58°   Wind: 6mph
Humidity: 92%   Direction: 170°S
Pressure: 30.03"   Gusts: NA
Location:  51.71°N, 1.78°W
Report Text: EGVA 301758Z AUTO 17005KT 9999 OVC012 16/14 A3003 RMK AO2 SLP172 P2400 614400 T01550142 10182 20153 50003
Loading
Personal Weather Stations






























Interactive Weather Map
Tropical Storm Tracking
New forecast layout! Learn more

10-Day Weather Forecast

Advertisements
Track Severe Weather on mobile